Time;durP1;ratioP1;P1;durP2;ratioP2;P2;SDS_P1;SDS_P2;PMS_P1;PMS_P2;Temp;Humidity;BMP_temperature;BMP_pressure;BME280_temperature;BME280_humidity;BME280_pressure;Samples;Min_cycle;Max_cycle;Signal;HPM_P1;HPM_P2
2022/05/11 00:00:18;;;;;;;7.65;4.53;;;17.30;70.90;;;;;;5059206;28;20051;-69
2022/05/11 00:02:46;;;;;;;9.15;4.55;;;17.20;71.10;;;;;;5064069;28;20051;-70
2022/05/11 00:05:15;;;;;;;6.82;4.45;;;17.20;71.10;;;;;;5061968;28;20090;-70
2022/05/11 00:07:42;;;;;;;7.55;3.83;;;17.20;71.20;;;;;;5063009;28;20043;-69
2022/05/11 00:10:12;;;;;;;6.32;3.92;;;17.20;71.30;;;;;;5066282;28;20033;-71
2022/05/11 00:12:39;;;;;;;6.88;4.20;;;17.10;71.40;;;;;;5065501;28;20114;-71
2022/05/11 00:15:09;;;;;;;7.30;3.97;;;17.10;71.60;;;;;;5066804;28;20052;-71
2022/05/11 00:17:36;;;;;;;6.75;3.90;;;17.10;71.80;;;;;;5061446;28;20659;-71
2022/05/11 00:20:06;;;;;;;6.55;4.05;;;17.10;71.90;;;;;;5057558;28;20053;-69
2022/05/11 00:22:33;;;;;;;;;;;17.10;72.10;;;;;;5060681;28;20101;-70
2022/05/11 00:25:00;;;;;;;7.18;3.78;;;17.10;72.20;;;;;;5062151;28;20007;-69
2022/05/11 00:27:27;;;;;;;7.35;4.35;;;17.00;72.40;;;;;;5058776;28;20096;-70
2022/05/11 00:29:54;;;;;;;6.97;4.40;;;17.10;72.30;;;;;;5059222;28;20064;-69
2022/05/11 00:32:24;;;;;;;7.47;4.35;;;17.00;72.60;;;;;;5063991;28;20053;-70
2022/05/11 00:34:51;;;;;;;6.70;4.50;;;17.00;72.60;;;;;;5062285;28;20088;-72
2022/05/11 00:37:19;;;;;;;7.90;4.82;;;17.00;72.50;;;;;;5060869;28;20068;-71
2022/05/11 00:39:47;;;;;;;7.38;4.18;;;17.10;72.40;;;;;;5066389;28;20041;-70
2022/05/11 00:42:14;;;;;;;6.90;4.82;;;17.00;72.60;;;;;;5066848;28;20133;-70
2022/05/11 00:44:42;;;;;;;8.15;4.68;;;17.00;72.80;;;;;;5070963;28;20036;-70
2022/05/11 00:47:15;;;;;;;9.13;4.95;;;17.00;72.80;;;;;;5067248;28;20028;-70
2022/05/11 00:49:48;;;;;;;7.90;4.80;;;17.00;72.80;;;;;;5064977;28;20045;-70
2022/05/11 00:52:20;;;;;;;5.47;3.90;;;17.00;72.70;;;;;;5064578;28;20040;-69
2022/05/11 00:54:53;;;;;;;7.93;4.97;;;17.00;72.80;;;;;;5054745;28;20052;-71
2022/05/11 00:57:24;;;;;;;8.55;5.15;;;16.90;72.80;;;;;;5070550;28;20124;-70
2022/05/11 00:59:54;;;;;;;7.38;4.72;;;17.00;72.50;;;;;;5062972;28;20044;-71
2022/05/11 01:02:23;;;;;;;11.90;4.97;;;17.00;72.40;;;;;;5063387;28;20044;-69
2022/05/11 01:04:53;;;;;;;8.55;5.10;;;17.00;72.30;;;;;;5064473;28;20045;-70
2022/05/11 01:07:20;;;;;;;;;;;16.90;72.50;;;;;;5067724;28;20110;-70
2022/05/11 01:09:49;;;;;;;8.15;4.45;;;16.90;72.70;;;;;;5069105;28;19967;-69
2022/05/11 01:12:19;;;;;;;7.60;4.55;;;16.90;72.70;;;;;;5064346;28;20041;-70
2022/05/11 01:14:52;;;;;;;6.65;4.68;;;16.80;72.90;;;;;;5066156;28;20055;-70
2022/05/11 01:17:19;;;;;;;7.22;4.95;;;16.80;73.00;;;;;;5064658;28;20040;-70
2022/05/11 01:19:47;;;;;;;9.60;4.68;;;16.70;73.20;;;;;;5065566;28;20047;-70
2022/05/11 01:22:20;;;;;;;9.85;4.60;;;16.70;73.30;;;;;;5063923;28;20056;-70
2022/05/11 01:24:50;;;;;;;9.77;4.60;;;16.60;73.40;;;;;;5071119;28;20067;-71
2022/05/11 01:27:35;;;;;;;7.60;4.80;;;16.60;73.50;;;;;;5070991;28;20048;-71
2022/05/11 01:30:06;;;;;;;7.22;4.88;;;16.60;73.50;;;;;;5066287;28;20358;-70
2022/05/11 01:32:33;;;;;;;8.77;5.07;;;16.60;73.50;;;;;;5066436;28;20044;-72
2022/05/11 01:35:25;;;;;;;8.35;5.20;;;16.60;73.70;;;;;;5067766;28;20490;-70
2022/05/11 01:38:01;;;;;;;9.25;5.13;;;16.50;73.70;;;;;;5063149;28;20041;-70
2022/05/11 01:40:30;;;;;;;7.95;4.90;;;16.40;73.80;;;;;;5062393;28;20482;-69
2022/05/11 01:42:57;;;;;;;8.93;4.65;;;16.50;73.90;;;;;;5063387;28;20717;-69
2022/05/11 01:45:24;;;;;;;6.75;4.72;;;16.40;74.00;;;;;;5062397;28;22017;-70
2022/05/11 01:47:55;;;;;;;7.80;4.93;;;16.40;74.20;;;;;;5064452;28;20041;-70
2022/05/11 01:50:23;;;;;;;6.88;4.28;;;16.40;74.10;;;;;;5071976;28;20036;-70
2022/05/11 01:52:50;;;;;;;10.52;4.85;;;16.30;74.20;;;;;;5071050;28;20101;-70
2022/05/11 01:55:17;;;;;;;8.77;4.65;;;16.30;74.30;;;;;;5066105;28;20037;-71
2022/05/11 01:57:45;;;;;;;7.70;5.00;;;16.30;74.30;;;;;;5070040;28;20127;-70
2022/05/11 02:00:13;;;;;;;9.23;4.85;;;16.30;74.20;;;;;;5063295;28;20069;-71
2022/05/11 02:02:40;;;;;;;7.47;4.35;;;16.30;74.10;;;;;;5068299;28;20040;-71
2022/05/11 02:07:55;;;;;;;10.02;5.20;;;16.30;74.20;;;;;;5021535;28;20662;-71
2022/05/11 02:10:24;;;;;;;7.63;4.60;;;16.20;74.30;;;;;;5065745;28;20410;-71
2022/05/11 02:12:52;;;;;;;9.27;5.75;;;16.20;74.30;;;;;;5062867;28;20053;-70
2022/05/11 02:15:21;;;;;;;7.53;4.72;;;16.20;74.30;;;;;;5060269;28;20036;-70
2022/05/11 02:17:48;;;;;;;9.50;4.68;;;16.20;74.40;;;;;;5063583;28;20144;-71
2022/05/11 02:20:16;;;;;;;7.18;4.53;;;16.10;74.50;;;;;;5066738;28;20051;-69
2022/05/11 02:22:44;;;;;;;8.00;5.13;;;16.10;74.60;;;;;;5065303;28;20044;-71
2022/05/11 02:25:13;;;;;;;7.72;4.70;;;16.10;74.60;;;;;;5067013;28;20036;-70
2022/05/11 02:27:40;;;;;;;7.90;4.70;;;16.10;74.60;;;;;;5069853;28;20036;-70
2022/05/11 02:30:12;;;;;;;7.22;4.43;;;16.10;74.70;;;;;;5061740;28;20062;-70
2022/05/11 02:32:40;;;;;;;6.03;4.25;;;16.00;74.60;;;;;;5064307;28;21652;-70
2022/05/11 02:35:14;;;;;;;7.82;4.80;;;16.00;74.60;;;;;;5061787;28;20063;-70
2022/05/11 02:37:42;;;;;;;8.57;4.93;;;16.00;74.70;;;;;;5066294;28;20056;-70
2022/05/11 02:40:10;;;;;;;7.50;4.70;;;15.90;74.80;;;;;;5069056;28;20589;-69
2022/05/11 02:42:38;;;;;;;7.63;4.05;;;15.90;74.90;;;;;;5070189;28;20045;-71
2022/05/11 02:45:06;;;;;;;9.07;5.10;;;15.90;74.90;;;;;;5070525;28;20040;-70
2022/05/11 02:47:35;;;;;;;8.38;4.90;;;15.90;75.00;;;;;;5070365;28;20048;-70
2022/05/11 02:50:03;;;;;;;6.72;4.47;;;15.80;75.10;;;;;;5070314;28;20059;-72
2022/05/11 02:52:30;;;;;;;8.10;4.18;;;15.90;75.20;;;;;;5068797;28;20071;-71
2022/05/11 02:54:57;;;;;;;8.60;4.45;;;15.90;75.10;;;;;;5063426;28;20043;-70
2022/05/11 02:57:24;;;;;;;8.20;4.60;;;15.80;75.20;;;;;;5066684;28;20152;-70
2022/05/11 02:59:51;;;;;;;8.07;4.57;;;15.80;75.30;;;;;;5071213;28;20036;-71
2022/05/11 03:02:19;;;;;;;6.55;4.57;;;15.80;75.30;;;;;;5066748;28;20044;-70
2022/05/11 03:04:47;;;;;;;7.95;4.80;;;15.70;75.50;;;;;;5068521;28;20040;-70
2022/05/11 03:07:14;;;;;;;10.40;4.85;;;15.70;75.60;;;;;;5070982;28;20649;-70
2022/05/11 03:09:41;;;;;;;8.52;4.97;;;15.70;75.50;;;;;;5071748;28;20044;-70
2022/05/11 03:12:09;;;;;;;7.53;5.10;;;15.70;75.60;;;;;;5069980;28;20117;-71
2022/05/11 03:14:36;;;;;;;9.15;5.13;;;15.70;75.50;;;;;;5070151;28;20044;-70
2022/05/11 03:17:03;;;;;;;10.27;4.82;;;15.70;75.60;;;;;;5068882;28;20036;-70
2022/05/11 03:19:30;;;;;;;9.48;4.70;;;15.70;75.60;;;;;;5067940;28;20040;-70
2022/05/11 03:21:59;;;;;;;8.00;5.03;;;15.60;75.70;;;;;;5068783;28;20083;-70
2022/05/11 03:24:26;;;;;;;8.65;5.18;;;15.60;75.70;;;;;;5063894;28;20115;-71
2022/05/11 03:26:53;;;;;;;9.32;4.75;;;15.60;75.90;;;;;;5069432;28;20048;-70
2022/05/11 03:29:20;;;;;;;8.98;5.10;;;15.60;75.90;;;;;;5070025;28;20405;-70
2022/05/11 03:34:37;;;;;;;8.77;5.03;;;15.60;76.00;;;;;;5050157;28;20132;-70
2022/05/11 03:37:07;;;;;;;8.82;5.10;;;15.60;76.20;;;;;;5049075;28;20446;-70
2022/05/11 03:39:34;;;;;;;7.75;4.95;;;15.60;76.20;;;;;;5050510;28;20057;-70
2022/05/11 03:42:01;;;;;;;6.43;4.47;;;15.60;76.20;;;;;;5042722;28;20588;-70
2022/05/11 03:44:29;;;;;;;8.68;4.85;;;15.60;76.20;;;;;;5043162;28;20087;-69
2022/05/11 03:46:55;;;;;;;7.78;5.03;;;15.60;76.40;;;;;;5044629;28;20041;-71
2022/05/11 03:49:23;;;;;;;10.02;5.40;;;15.60;76.30;;;;;;5042221;28;20146;-70
2022/05/11 03:51:50;;;;;;;7.55;4.85;;;15.60;76.40;;;;;;5047127;28;20041;-70
2022/05/11 03:54:19;;;;;;;7.93;4.53;;;15.60;76.40;;;;;;5027752;28;20471;-70
2022/05/11 03:56:46;;;;;;;8.55;5.00;;;15.60;76.40;;;;;;5036372;28;20056;-70
2022/05/11 03:59:13;;;;;;;7.15;4.55;;;15.50;76.50;;;;;;5038077;28;20037;-70
2022/05/11 04:01:40;;;;;;;6.68;4.50;;;15.50;76.50;;;;;;5038100;28;20052;-71
2022/05/11 04:04:07;;;;;;;8.10;5.30;;;15.50;76.70;;;;;;5041445;28;20049;-70
2022/05/11 04:06:35;;;;;;;9.40;4.78;;;15.50;76.80;;;;;;5031224;28;20045;-71
2022/05/11 04:09:02;;;;;;;7.55;5.10;;;15.50;76.90;;;;;;5038968;28;20045;-70
2022/05/11 04:11:31;;;;;;;7.72;4.82;;;15.50;76.80;;;;;;5036495;28;20040;-71
2022/05/11 04:13:58;;;;;;;7.38;4.82;;;15.40;76.90;;;;;;5039175;28;20053;-71
2022/05/11 04:16:25;;;;;;;8.50;5.07;;;15.40;77.00;;;;;;5036645;28;20049;-70
2022/05/11 04:18:52;;;;;;;7.40;4.78;;;15.40;77.10;;;;;;5037495;28;20076;-70
2022/05/11 04:21:19;;;;;;;8.00;4.85;;;15.40;77.20;;;;;;5037808;28;20049;-70
2022/05/11 04:23:47;;;;;;;9.45;4.97;;;15.40;77.10;;;;;;5037392;28;20041;-70
2022/05/11 04:26:15;;;;;;;12.73;6.20;;;15.40;77.10;;;;;;5037310;28;20394;-70
2022/05/11 04:28:44;;;;;;;9.02;5.90;;;15.50;77.00;;;;;;5036935;28;20936;-71
2022/05/11 04:31:13;;;;;;;9.88;6.13;;;15.40;77.10;;;;;;5044215;28;20491;-70
2022/05/11 04:33:41;;;;;;;9.63;5.30;;;15.40;77.20;;;;;;5047641;28;20052;-71
2022/05/11 04:36:08;;;;;;;7.70;4.95;;;15.40;77.30;;;;;;5067304;28;20037;-71
2022/05/11 04:38:35;;;;;;;6.90;4.63;;;15.40;77.20;;;;;;5066222;28;20055;-71
2022/05/11 04:41:03;;;;;;;9.60;5.03;;;15.40;77.20;;;;;;5067944;28;20094;-69
2022/05/11 04:43:30;;;;;;;8.30;5.13;;;15.50;77.20;;;;;;5064655;28;20494;-70
2022/05/11 04:45:58;;;;;;;6.55;5.03;;;15.40;77.20;;;;;;5068717;28;20885;-70
2022/05/11 04:48:25;;;;;;;9.73;4.82;;;15.40;77.20;;;;;;5062828;28;20086;-69
2022/05/11 04:50:52;;;;;;;7.55;4.97;;;15.40;77.30;;;;;;5058343;28;21726;-69
2022/05/11 04:53:19;;;;;;;8.40;5.30;;;15.40;77.30;;;;;;5048240;28;20492;-71
2022/05/11 04:55:47;;;;;;;8.65;5.35;;;15.40;77.30;;;;;;5060826;28;20049;-70
2022/05/11 04:58:15;;;;;;;9.15;5.00;;;15.40;77.30;;;;;;5058684;28;20056;-70
2022/05/11 05:00:42;;;;;;;8.45;5.20;;;15.40;77.30;;;;;;5058727;28;20036;-71
2022/05/11 05:03:12;;;;;;;9.30;5.38;;;15.50;77.30;;;;;;5068489;28;20079;-70
2022/05/11 05:05:39;;;;;;;9.35;5.28;;;15.50;77.30;;;;;;5069681;28;20048;-70
2022/05/11 05:08:07;;;;;;;8.63;5.28;;;15.60;77.30;;;;;;5066146;28;20032;-71
2022/05/11 05:10:34;;;;;;;8.45;5.32;;;15.60;77.30;;;;;;5066641;28;20036;-69
2022/05/11 05:13:04;;;;;;;8.18;4.75;;;15.60;77.30;;;;;;5065787;28;20041;-70
2022/05/11 05:15:32;;;;;;;8.10;4.53;;;15.60;77.20;;;;;;5068648;28;20424;-72
2022/05/11 05:18:01;;;;;;;7.43;4.82;;;15.60;77.20;;;;;;5075915;28;20040;-69
2022/05/11 05:20:30;;;;;;;7.13;4.93;;;15.70;77.00;;;;;;5069567;28;20119;-69
2022/05/11 05:22:57;;;;;;;8.82;5.20;;;15.70;77.10;;;;;;5062625;28;20114;-71
2022/05/11 05:25:24;;;;;;;8.05;5.22;;;15.70;77.00;;;;;;5056194;28;20517;-69
2022/05/11 05:27:51;;;;;;;7.88;4.78;;;15.80;77.00;;;;;;5073124;28;20048;-71
2022/05/11 05:33:03;;;;;;;8.52;4.80;;;15.80;77.00;;;;;;5073685;28;20039;-70
2022/05/11 05:35:31;;;;;;;10.88;5.57;;;15.90;76.90;;;;;;5071604;28;20051;-70
2022/05/11 05:37:58;;;;;;;7.18;4.95;;;15.90;76.90;;;;;;5065197;28;20033;-70
2022/05/11 05:40:26;;;;;;;7.75;5.07;;;15.90;76.90;;;;;;5064973;28;20474;-71
2022/05/11 05:42:52;;;;;;;8.40;5.55;;;16.00;77.00;;;;;;5064190;28;20090;-71
2022/05/11 05:45:20;;;;;;;8.00;5.03;;;16.00;77.00;;;;;;5062708;28;20076;-71
2022/05/11 05:47:47;;;;;;;11.27;5.72;;;16.10;77.00;;;;;;5063802;28;20032;-71
2022/05/11 05:50:13;;;;;;;10.95;5.43;;;16.10;76.90;;;;;;5061627;28;20063;-71
2022/05/11 05:52:44;;;;;;;11.27;5.82;;;16.20;76.80;;;;;;5062986;28;20033;-72
2022/05/11 05:55:12;;;;;;;9.85;5.43;;;16.30;76.70;;;;;;5062869;28;20064;-69
2022/05/11 05:57:39;;;;;;;9.38;5.72;;;16.40;76.60;;;;;;5060645;28;20119;-71
2022/05/11 06:00:08;;;;;;;11.40;5.47;;;16.40;76.40;;;;;;5060256;28;20048;-70
2022/05/11 06:02:34;;;;;;;8.93;5.57;;;16.50;76.30;;;;;;5062203;28;20044;-70
2022/05/11 06:05:01;;;;;;;7.25;5.00;;;16.50;76.20;;;;;;5063172;28;20045;-71
2022/05/11 06:07:30;;;;;;;10.13;5.60;;;16.60;76.20;;;;;;5063822;28;20062;-71
2022/05/11 06:09:58;;;;;;;8.10;5.28;;;16.60;76.30;;;;;;5063538;28;20198;-71
2022/05/11 06:12:25;;;;;;;9.20;5.10;;;16.70;76.00;;;;;;5065310;28;20494;-72
2022/05/11 06:14:52;;;;;;;8.32;5.15;;;16.70;76.00;;;;;;5063441;28;20041;-70
2022/05/11 06:17:23;;;;;;;9.23;5.53;;;16.80;76.00;;;;;;5063725;28;20494;-71
2022/05/11 06:19:50;;;;;;;9.65;6.45;;;16.80;75.90;;;;;;5062582;28;20039;-70
2022/05/11 06:22:18;;;;;;;11.07;7.07;;;16.80;75.90;;;;;;5064617;28;20048;-70
2022/05/11 06:24:45;;;;;;;12.52;6.57;;;16.90;75.90;;;;;;5060701;28;20032;-71
2022/05/11 06:27:17;;;;;;;13.15;7.60;;;17.00;75.90;;;;;;5063866;28;20036;-71
2022/05/11 06:29:52;;;;;;;12.65;7.22;;;17.10;75.70;;;;;;5062346;28;20047;-70
2022/05/11 06:32:19;;;;;;;13.13;7.38;;;17.10;75.80;;;;;;5064665;28;20067;-71
2022/05/11 06:34:46;;;;;;;9.68;6.63;;;17.30;75.80;;;;;;5063310;28;20579;-70
2022/05/11 06:37:13;;;;;;;12.35;7.25;;;17.30;75.50;;;;;;5063026;28;20146;-70
2022/05/11 06:39:41;;;;;;;13.32;7.22;;;17.40;75.50;;;;;;5057973;28;20083;-71
2022/05/11 06:42:08;;;;;;;11.88;6.20;;;17.50;75.60;;;;;;5063338;28;20477;-70
2022/05/11 06:44:37;;;;;;;10.93;7.80;;;17.60;75.20;;;;;;5062624;28;20056;-71
2022/05/11 06:47:04;;;;;;;12.75;7.82;;;17.60;75.10;;;;;;5064922;28;20060;-70
2022/05/11 06:49:32;;;;;;;15.18;9.45;;;17.80;75.10;;;;;;5064852;28;20041;-72
2022/05/11 06:51:59;;;;;;;14.27;8.43;;;17.90;75.00;;;;;;5065985;28;20481;-71
2022/05/11 06:59:58;;;;;;;11.65;7.15;;;18.20;75.00;;;;;;5065426;28;20055;-68
2022/05/11 07:02:25;;;;;;;11.63;6.50;;;18.40;74.60;;;;;;5060127;28;20892;-70
2022/05/11 07:04:52;;;;;;;9.43;5.30;;;18.60;74.40;;;;;;5062870;28;20235;-71
2022/05/11 07:07:19;;;;;;;9.48;5.63;;;18.70;74.30;;;;;;5061056;28;20107;-70
2022/05/11 07:09:46;;;;;;;8.85;5.25;;;18.80;73.60;;;;;;5061334;28;20053;-69
2022/05/11 07:12:20;;;;;;;7.93;4.97;;;18.90;73.30;;;;;;5064507;28;20096;-71
2022/05/11 07:14:49;;;;;;;12.82;4.53;;;19.00;72.80;;;;;;5064838;28;20040;-70
2022/05/11 07:17:31;;;;;;;7.05;4.22;;;19.20;72.20;;;;;;5061655;28;20055;-70
2022/05/11 07:19:59;;;;;;;10.73;4.75;;;19.40;72.00;;;;;;5061786;28;20040;-70
2022/05/11 07:22:27;;;;;;;8.00;4.43;;;19.60;71.40;;;;;;5061954;28;20478;-69
2022/05/11 07:24:54;;;;;;;7.82;4.05;;;19.70;69.90;;;;;;5060892;28;20160;-69
2022/05/11 07:27:22;;;;;;;7.90;3.92;;;19.80;70.40;;;;;;5061461;28;20120;-70
2022/05/11 07:29:50;;;;;;;5.57;3.40;;;20.00;69.20;;;;;;5063897;28;20056;-70
2022/05/11 07:32:16;;;;;;;7.13;3.88;;;20.10;68.30;;;;;;5064355;28;20482;-70
2022/05/11 07:34:45;;;;;;;7.20;3.83;;;20.20;69.00;;;;;;5060619;28;20048;-71
2022/05/11 07:37:12;;;;;;;4.85;3.50;;;20.40;68.20;;;;;;5053278;28;20043;-70
2022/05/11 07:39:39;;;;;;;6.28;3.38;;;20.50;67.50;;;;;;5063570;28;20040;-70
2022/05/11 07:42:07;;;;;;;5.53;3.33;;;20.60;68.10;;;;;;5061464;28;20044;-69
2022/05/11 07:44:35;;;;;;;4.95;3.22;;;20.70;66.90;;;;;;5064024;28;20121;-70
2022/05/11 07:47:02;;;;;;;4.78;3.15;;;20.80;67.30;;;;;;5060065;28;20052;-69
2022/05/11 07:49:29;;;;;;;5.55;3.10;;;20.90;65.50;;;;;;5059762;28;20044;-68
2022/05/11 07:51:57;;;;;;;7.20;2.97;;;21.00;64.70;;;;;;5063024;28;20064;-70
2022/05/11 07:54:24;;;;;;;6.13;3.33;;;21.20;63.90;;;;;;5064172;28;20064;-70
2022/05/11 08:02:25;;;;;;;5.50;2.85;;;21.50;62.50;;;;;;5042080;28;20406;-70
2022/05/11 08:04:52;;;;;;;7.40;2.90;;;21.60;62.20;;;;;;5053561;28;20043;-70
2022/05/11 08:07:22;;;;;;;6.03;3.20;;;21.60;61.90;;;;;;5061620;28;20036;-70
2022/05/11 08:09:49;;;;;;;5.13;2.78;;;21.60;61.60;;;;;;5060573;28;20044;-70
2022/05/11 08:12:16;;;;;;;4.90;2.78;;;21.70;61.50;;;;;;5062828;28;20086;-69
2022/05/11 08:14:44;;;;;;;4.45;2.58;;;21.80;61.10;;;;;;5059590;28;20047;-68
2022/05/11 08:17:11;;;;;;;6.20;2.90;;;21.90;60.70;;;;;;5064758;28;20086;-70
2022/05/11 08:19:38;;;;;;;5.88;3.40;;;21.90;60.60;;;;;;5060584;28;20055;-70
2022/05/11 08:22:05;;;;;;;5.15;2.60;;;22.00;60.30;;;;;;5059614;28;20043;-69
2022/05/11 08:24:33;;;;;;;7.00;3.28;;;22.00;59.80;;;;;;5061526;28;20055;-70
2022/05/11 08:27:00;;;;;;;5.00;2.53;;;22.10;60.40;;;;;;5062294;28;20111;-71
2022/05/11 08:35:28;;;;;;;4.53;2.70;;;22.30;59.60;;;;;;4940698;28;20506;-71
2022/05/11 08:37:56;;;;;;;5.70;2.45;;;22.40;58.80;;;;;;5024774;28;20052;-70
2022/05/11 08:40:45;;;;;;;5.07;2.60;;;22.40;59.00;;;;;;5061990;28;20037;-69
2022/05/11 08:43:16;;;;;;;5.05;2.55;;;22.50;58.60;;;;;;5061439;28;20478;-69
2022/05/11 08:45:49;;;;;;;5.65;2.63;;;22.50;58.70;;;;;;5060655;28;20037;-70
2022/05/11 08:48:26;;;;;;;4.18;2.63;;;22.60;58.70;;;;;;5063739;28;20057;-70
2022/05/11 08:50:53;;;;;;;4.75;2.83;;;22.60;58.50;;;;;;5062430;28;20044;-70
2022/05/11 08:53:31;;;;;;;6.78;2.85;;;22.60;58.50;;;;;;5060231;28;20115;-70
2022/05/11 08:56:05;;;;;;;6.97;2.90;;;22.60;58.40;;;;;;5058977;28;20121;-71
2022/05/11 08:58:36;;;;;;;4.72;3.10;;;22.70;58.10;;;;;;5055359;28;20040;-70
2022/05/11 09:01:06;;;;;;;4.15;2.50;;;22.80;58.10;;;;;;5058641;28;20045;-70
2022/05/11 09:03:36;;;;;;;7.45;3.80;;;22.80;57.90;;;;;;5061386;28;20119;-70
2022/05/11 09:06:07;;;;;;;5.50;2.47;;;22.90;57.90;;;;;;5065155;28;20056;-70
2022/05/11 09:08:37;;;;;;;3.83;2.25;;;22.90;57.50;;;;;;5063161;28;20056;-71
2022/05/11 09:11:07;;;;;;;6.43;2.70;;;23.00;57.50;;;;;;5065615;28;20044;-71
2022/05/11 09:13:37;;;;;;;5.13;2.72;;;23.00;57.50;;;;;;5066134;28;20044;-69
2022/05/11 09:16:06;;;;;;;4.60;2.70;;;23.10;57.10;;;;;;5061355;28;20139;-69
2022/05/11 09:18:40;;;;;;;4.32;2.65;;;23.10;56.90;;;;;;5064080;28;20067;-70
2022/05/11 09:21:19;;;;;;;7.28;2.33;;;23.10;56.50;;;;;;5064152;28;20051;-71
2022/05/11 09:24:00;;;;;;;3.90;2.03;;;23.10;56.30;;;;;;5064359;28;20072;-69
2022/05/11 09:26:32;;;;;;;6.38;2.50;;;23.20;55.80;;;;;;5063660;28;20051;-70
2022/05/11 09:29:16;;;;;;;6.07;2.60;;;23.30;55.00;;;;;;5064164;28;20044;-70
2022/05/11 09:31:44;;;;;;;4.50;2.00;;;23.30;54.60;;;;;;5048909;28;20402;-70
2022/05/11 09:34:14;;;;;;;6.45;2.20;;;23.40;54.20;;;;;;5062896;28;20052;-70
2022/05/11 09:36:45;;;;;;;4.93;2.38;;;23.40;54.00;;;;;;5065027;28;20040;-70
2022/05/11 09:39:14;;;;;;;4.97;2.33;;;23.40;54.10;;;;;;5065995;28;20553;-69
2022/05/11 09:41:45;;;;;;;4.35;2.20;;;23.40;53.90;;;;;;5065386;28;20509;-70
2022/05/11 09:44:20;;;;;;;4.13;2.28;;;23.50;53.30;;;;;;5066924;28;20075;-70
2022/05/11 09:46:47;;;;;;;7.82;4.35;;;23.50;53.10;;;;;;5065299;28;20036;-71
2022/05/11 09:49:26;;;;;;;7.00;3.05;;;23.60;52.90;;;;;;5066465;28;20041;-70
2022/05/11 09:51:55;;;;;;;4.30;2.20;;;23.60;52.80;;;;;;5047960;28;20044;-69
2022/05/11 09:54:32;;;;;;;3.58;2.15;;;23.60;52.40;;;;;;5064347;28;20051;-71
2022/05/11 09:57:04;;;;;;;5.10;2.42;;;23.60;52.20;;;;;;5066754;28;20049;-69
2022/05/11 09:59:34;;;;;;;5.32;3.00;;;23.70;51.70;;;;;;5062243;28;20119;-70
2022/05/11 10:02:19;;;;;;;4.72;2.35;;;23.80;51.80;;;;;;5063625;28;20119;-71
2022/05/11 10:04:53;;;;;;;5.45;2.15;;;23.80;51.40;;;;;;5066117;28;20083;-70
2022/05/11 10:07:20;;;;;;;4.13;2.17;;;23.80;51.50;;;;;;5045204;28;20323;-71
2022/05/11 10:09:52;;;;;;;5.78;2.40;;;23.90;51.40;;;;;;5064400;28;20039;-70
2022/05/11 10:12:25;;;;;;;3.65;1.85;;;23.80;50.90;;;;;;5067255;28;20502;-69
2022/05/11 10:23:19;;;;;;;5.55;3.10;;;23.90;51.00;;;;;;5061336;28;20040;-69
2022/05/11 10:25:50;;;;;;;6.70;2.30;;;23.90;51.20;;;;;;5064401;28;20047;-70
2022/05/11 10:28:28;;;;;;;4.38;2.00;;;24.00;50.70;;;;;;5070957;28;20055;-70
2022/05/11 10:30:59;;;;;;;4.28;2.05;;;24.10;50.50;;;;;;5072195;28;20044;-69
2022/05/11 10:33:51;;;;;;;4.32;1.92;;;24.10;50.30;;;;;;5058868;28;20054;-70
2022/05/11 10:36:26;;;;;;;5.90;1.90;;;24.20;49.60;;;;;;5063802;28;20044;-71
2022/05/11 10:39:11;;;;;;;3.88;1.65;;;24.10;49.10;;;;;;5062958;28;20044;-70
2022/05/11 10:41:43;;;;;;;3.22;2.15;;;24.20;48.60;;;;;;5060510;28;20831;-69
2022/05/11 10:44:28;;;;;;;4.20;1.88;;;24.20;48.20;;;;;;5062588;28;20586;-70
2022/05/11 10:47:03;;;;;;;6.72;2.28;;;24.20;48.30;;;;;;5064407;28;20040;-69
2022/05/11 10:49:44;;;;;;;5.32;1.70;;;24.20;48.50;;;;;;5066688;28;20044;-69
2022/05/11 10:52:40;;;;;;;5.40;2.45;;;24.10;48.50;;;;;;5064361;28;20470;-70
2022/05/11 10:55:23;;;;;;;3.97;2.25;;;24.10;48.50;;;;;;5061453;28;20048;-69
2022/05/11 10:58:01;;;;;;;2.92;1.80;;;24.10;48.30;;;;;;5061628;28;20130;-70
2022/05/11 11:00:32;;;;;;;4.25;2.03;;;24.20;48.00;;;;;;5057382;28;20037;-69
2022/05/11 11:03:42;;;;;;;4.05;1.88;;;24.20;48.10;;;;;;5063728;28;20044;-69
2022/05/11 11:09:26;;;;;;;3.53;1.92;;;24.30;47.90;;;;;;5060077;28;20414;-69
2022/05/11 11:12:01;;;;;;;4.03;2.08;;;24.20;48.50;;;;;;5060050;28;20077;-70
2022/05/11 11:14:32;;;;;;;4.25;2.47;;;24.30;48.10;;;;;;5065170;28;20033;-70
2022/05/11 11:17:04;;;;;;;5.00;2.22;;;24.30;48.40;;;;;;5069962;28;20417;-70
2022/05/11 11:19:31;;;;;;;3.60;1.98;;;24.30;48.50;;;;;;5070285;28;20470;-69
2022/05/11 11:22:00;;;;;;;4.05;2.17;;;24.40;48.40;;;;;;5071086;28;20051;-70
2022/05/11 11:24:28;;;;;;;4.43;2.22;;;24.50;48.30;;;;;;5071211;28;20482;-70
2022/05/11 11:26:57;;;;;;;4.20;2.28;;;24.50;48.40;;;;;;5070511;28;20062;-69
2022/05/11 11:29:29;;;;;;;;;;;24.60;48.50;;;;;;5071852;28;20828;-69
2022/05/11 11:32:16;;;;;;;5.18;2.40;;;24.50;48.50;;;;;;5070597;28;19924;-70
2022/05/11 11:34:45;;;;;;;5.07;2.95;;;24.50;49.20;;;;;;5070003;28;20088;-70
2022/05/11 11:37:42;;;;;;;4.53;3.13;;;24.50;48.80;;;;;;5070717;28;20064;-71
2022/05/11 11:40:37;;;;;;;6.10;2.60;;;24.50;49.10;;;;;;5065866;28;20033;-69
2022/05/11 11:43:45;;;;;;;3.85;2.70;;;24.50;49.40;;;;;;5063551;28;20530;-70
2022/05/11 11:46:28;;;;;;;4.20;2.20;;;24.50;49.30;;;;;;5060102;28;20052;-70
2022/05/11 11:49:06;;;;;;;6.85;2.42;;;24.60;49.20;;;;;;5064102;28;20402;-69
2022/05/11 11:51:53;;;;;;;5.43;2.95;;;24.50;49.10;;;;;;5062932;28;20124;-69
2022/05/11 11:54:28;;;;;;;4.85;2.70;;;24.50;49.00;;;;;;5061852;28;20049;-69
2022/05/11 11:56:57;;;;;;;5.32;2.63;;;24.50;49.30;;;;;;5063501;28;20493;-70
2022/05/11 11:59:37;;;;;;;4.35;2.60;;;24.50;49.60;;;;;;5060296;28;20044;-71
2022/05/11 12:02:12;;;;;;;;;;;24.50;49.40;;;;;;5059133;28;20132;-71
2022/05/11 12:04:45;;;;;;;4.10;2.35;;;24.50;49.60;;;;;;5061049;28;19978;-71
2022/05/11 12:15:48;;;;;;;4.15;2.30;;;24.50;49.60;;;;;;5045662;28;20048;-70
2022/05/11 12:18:24;;;;;;;4.72;2.80;;;24.60;49.30;;;;;;5061459;28;20128;-70
2022/05/11 12:20:54;;;;;;;7.93;2.67;;;24.60;49.20;;;;;;5064488;28;20705;-68
2022/05/11 12:23:24;;;;;;;3.95;2.03;;;24.60;49.50;;;;;;5065851;28;20080;-69
2022/05/11 12:25:54;;;;;;;4.82;2.67;;;24.50;49.70;;;;;;5061479;28;20087;-71
2022/05/11 12:28:25;;;;;;;7.32;2.70;;;24.50;49.80;;;;;;5061591;28;20052;-69
2022/05/11 12:30:52;;;;;;;4.68;2.70;;;24.50;49.80;;;;;;5061945;28;20048;-71
2022/05/11 12:33:22;;;;;;;5.18;2.63;;;24.50;49.80;;;;;;5063655;28;20044;-70
2022/05/11 12:35:50;;;;;;;6.90;3.00;;;24.50;50.00;;;;;;5058786;28;20052;-69
2022/05/11 12:38:32;;;;;;;3.35;2.30;;;24.50;50.10;;;;;;5064467;28;20036;-70
2022/05/11 12:41:01;;;;;;;6.25;3.47;;;24.50;50.30;;;;;;5069370;28;20049;-71
2022/05/11 12:43:32;;;;;;;6.40;2.67;;;24.60;50.40;;;;;;5066139;28;20064;-70
2022/05/11 12:46:00;;;;;;;4.85;2.63;;;24.60;49.90;;;;;;5064582;28;20044;-70
2022/05/11 12:48:31;;;;;;;7.22;3.25;;;24.60;49.90;;;;;;5066749;28;20041;-70
2022/05/11 12:51:04;;;;;;;5.18;2.55;;;24.70;49.70;;;;;;5063830;28;20054;-72
2022/05/11 12:53:34;;;;;;;5.22;2.75;;;24.60;49.90;;;;;;5063083;28;20045;-69
2022/05/11 12:56:19;;;;;;;6.35;2.55;;;24.60;50.00;;;;;;5072119;28;20113;-70
2022/05/11 12:58:49;;;;;;;7.38;2.80;;;24.60;50.20;;;;;;5068850;28;20101;-69
2022/05/11 13:01:18;;;;;;;6.38;2.78;;;24.60;50.20;;;;;;5065821;28;20069;-69
2022/05/11 13:03:46;;;;;;;10.32;3.03;;;24.60;50.30;;;;;;5068453;28;20037;-70
2022/05/11 13:06:38;;;;;;;8.43;2.63;;;24.70;49.80;;;;;;5065592;28;20044;-71
2022/05/11 13:09:09;;;;;;;5.75;2.50;;;24.70;49.80;;;;;;5070011;28;20044;-68
2022/05/11 13:11:38;;;;;;;6.65;2.75;;;24.70;49.70;;;;;;5071467;28;20044;-71
2022/05/11 13:14:14;;;;;;;3.92;2.65;;;24.80;49.90;;;;;;5068910;28;20116;-73
2022/05/11 13:16:47;;;;;;;5.32;2.63;;;24.80;49.90;;;;;;5072641;28;20055;-70
2022/05/11 13:19:23;;;;;;;7.47;2.70;;;24.80;50.20;;;;;;5064358;28;20067;-70
2022/05/11 13:21:51;;;;;;;4.82;2.42;;;24.80;50.30;;;;;;5070267;28;20102;-69
2022/05/11 13:24:38;;;;;;;6.05;3.20;;;24.90;49.90;;;;;;5071059;28;20552;-70
2022/05/11 13:27:32;;;;;;;4.63;2.78;;;24.90;49.60;;;;;;5071200;28;20036;-69
2022/05/11 13:30:16;;;;;;;3.65;2.50;;;25.00;49.40;;;;;;5073036;28;20090;-70
2022/05/11 13:32:46;;;;;;;5.20;2.42;;;24.90;49.40;;;;;;5067615;28;20040;-71
2022/05/11 13:35:32;;;;;;;4.72;2.60;;;24.90;49.20;;;;;;5063255;28;20067;-70
2022/05/11 13:38:18;;;;;;;3.75;2.30;;;24.90;48.70;;;;;;5063835;28;20032;-69
2022/05/11 13:40:59;;;;;;;5.78;2.65;;;24.90;48.60;;;;;;5065261;28;20128;-70
2022/05/11 13:43:31;;;;;;;7.03;2.83;;;24.90;48.90;;;;;;5064299;28;20044;-70
2022/05/11 13:46:00;;;;;;;9.95;2.92;;;24.90;49.10;;;;;;5057817;28;20052;-70
2022/05/11 13:48:28;;;;;;;4.00;2.10;;;24.90;49.40;;;;;;5064270;28;20045;-69
2022/05/11 13:51:08;;;;;;;3.65;2.47;;;24.90;49.50;;;;;;5064062;28;20467;-70